Time;durP1;ratioP1;P1;durP2;ratioP2;P2;SDS_P1;SDS_P2;PMS_P1;PMS_P2;Temp;Humidity;BMP_temperature;BMP_pressure;BME280_temperature;BME280_humidity;BME280_pressure;Samples;Min_cycle;Max_cycle;Signal;HPM_P1;HPM_P2
2022/08/26 00:02:05;;;;;;;9.27;8.33;;;27.30;57.60;;;29.89;43.98;101324.28;5075211;28;20580;-64
2022/08/26 00:04:34;;;;;;;10.40;8.43;;;27.30;57.80;;;29.85;43.68;101328.69;5075934;28;20205;-66
2022/08/26 00:07:04;;;;;;;9.87;8.27;;;27.20;57.90;;;29.80;43.73;101328.72;5075425;28;20185;-64
2022/08/26 00:09:32;;;;;;;9.33;7.73;;;27.20;58.10;;;29.76;43.82;101329.56;5075305;28;20193;-64
2022/08/26 00:12:05;;;;;;;8.67;6.70;;;27.10;58.30;;;29.71;43.73;101330.44;5075133;28;20223;-64
2022/08/26 00:14:33;;;;;;;9.63;8.10;;;27.10;58.40;;;29.69;43.97;101337.25;5075374;28;20189;-63
2022/08/26 00:17:00;;;;;;;10.23;7.40;;;27.10;58.50;;;29.65;44.23;101330.75;5075275;28;20201;-65
2022/08/26 00:19:27;;;;;;;8.83;7.67;;;27.00;58.50;;;29.61;44.12;101329.72;5075039;28;20193;-64
2022/08/26 00:21:55;;;;;;;10.13;7.93;;;27.00;58.70;;;29.59;44.28;101326.47;5074763;28;20213;-64
2022/08/26 00:24:24;;;;;;;8.53;7.60;;;26.90;58.70;;;29.57;44.46;101331.41;5075204;28;20201;-63
2022/08/26 00:26:52;;;;;;;9.87;7.70;;;26.90;58.80;;;29.56;44.42;101327.03;5074784;28;20592;-64
2022/08/26 00:29:20;;;;;;;9.50;8.60;;;26.90;58.90;;;29.54;44.43;101326.53;5074775;28;20202;-65
2022/08/26 00:31:48;;;;;;;10.03;7.97;;;26.90;59.00;;;29.50;44.58;101324.38;5074937;28;20209;-65
2022/08/26 00:34:16;;;;;;;8.07;7.40;;;26.90;59.10;;;29.46;44.90;101317.91;5074922;28;20283;-65
2022/08/26 00:36:46;;;;;;;10.57;8.13;;;26.80;59.30;;;29.45;45.00;101319.00;5075134;28;20223;-65
2022/08/26 00:39:18;;;;;;;8.43;7.53;;;26.80;59.30;;;29.41;44.73;101315.25;5074031;28;20193;-65
2022/08/26 00:41:49;;;;;;;10.00;7.50;;;26.80;60.00;;;29.39;44.69;101309.28;5061484;28;20705;-66
2022/08/26 00:44:18;;;;;;;10.07;8.80;;;26.80;59.50;;;29.36;44.84;101304.44;5053643;28;20666;-64
2022/08/26 00:46:53;;;;;;;8.90;7.63;;;26.80;59.60;;;29.33;45.05;101307.72;5071457;28;20196;-66
2022/08/26 00:49:34;;;;;;;10.57;7.93;;;26.70;59.60;;;29.32;45.18;101308.81;5073674;28;20304;-64
2022/08/26 00:52:06;;;;;;;10.83;9.33;;;26.70;59.80;;;29.34;45.13;101311.22;5073606;28;20217;-64
2022/08/26 00:54:45;;;;;;;10.77;7.63;;;26.70;60.10;;;29.33;45.32;101301.50;5073879;28;20181;-64
2022/08/26 00:57:18;;;;;;;9.07;7.83;;;26.70;60.00;;;29.32;45.42;101300.69;5073859;28;20538;-64
2022/08/26 00:59:53;;;;;;;9.47;7.87;;;26.70;60.10;;;29.30;45.51;101308.31;5073644;28;20565;-65
2022/08/26 01:02:21;;;;;;;9.07;7.97;;;26.70;61.00;;;29.31;45.41;101304.47;5073506;28;20221;-64
2022/08/26 01:04:53;;;;;;;10.80;8.50;;;26.60;60.30;;;29.30;45.47;101311.00;5073297;28;20212;-65
2022/08/26 01:07:25;;;;;;;12.50;9.07;;;26.60;60.40;;;29.29;45.58;101297.72;5073766;28;20189;-64
2022/08/26 01:09:54;;;;;;;10.60;8.23;;;26.60;60.50;;;29.27;45.66;101303.44;5074481;28;20261;-65
2022/08/26 01:12:26;;;;;;;8.70;7.83;;;26.60;60.60;;;29.26;45.89;101303.72;5074040;28;20217;-65
2022/08/26 01:14:54;;;;;;;10.23;7.63;;;26.60;60.60;;;29.21;45.77;101307.31;5089825;28;20216;-64
2022/08/26 01:17:22;;;;;;;9.53;8.07;;;26.60;60.80;;;29.21;45.72;101312.72;5074183;28;20744;-64
2022/08/26 01:19:59;;;;;;;9.03;7.10;;;26.60;60.90;;;29.20;45.84;101311.09;5074023;28;20193;-65
2022/08/26 01:22:39;;;;;;;9.47;8.47;;;26.50;61.00;;;29.19;45.70;101311.38;5073827;28;20315;-65
2022/08/26 01:25:07;;;;;;;9.93;7.70;;;26.50;60.90;;;29.16;46.00;101315.44;5074002;28;20215;-64
2022/08/26 01:27:35;;;;;;;10.20;7.90;;;26.50;60.90;;;29.13;45.89;101313.28;5074072;28;20212;-64
2022/08/26 01:30:06;;;;;;;11.20;7.47;;;26.50;61.10;;;29.10;45.94;101316.56;5065026;28;20197;-65
2022/08/26 01:32:35;;;;;;;10.13;7.80;;;26.40;61.20;;;29.07;45.95;101314.44;5053522;28;20213;-64
2022/08/26 01:35:07;;;;;;;8.73;7.80;;;26.40;61.30;;;29.02;46.01;101309.06;5053557;28;20202;-64
2022/08/26 01:37:38;;;;;;;8.83;7.93;;;26.40;61.30;;;28.96;46.19;101310.16;5054017;28;20193;-65
2022/08/26 01:40:15;;;;;;;10.33;7.90;;;26.30;62.30;;;28.87;46.62;101311.84;5053583;28;20244;-64
2022/08/26 01:42:45;;;;;;;10.10;7.43;;;26.30;61.60;;;28.80;46.37;101304.06;5053428;28;20210;-64
2022/08/26 01:45:18;;;;;;;9.37;7.80;;;26.20;61.60;;;28.73;46.49;101306.28;5058256;28;20192;-66
2022/08/26 01:47:48;;;;;;;9.43;8.10;;;26.10;61.90;;;28.68;46.81;101302.78;5073685;28;20200;-65
2022/08/26 01:50:27;;;;;;;10.80;8.43;;;26.00;62.10;;;28.63;46.92;101308.22;5073387;28;20216;-65
2022/08/26 01:53:04;;;;;;;9.00;8.07;;;26.00;62.50;;;28.58;47.14;101314.44;5073584;28;20213;-66
2022/08/26 01:55:35;;;;;;;12.87;8.60;;;26.00;62.80;;;28.55;47.03;101314.22;5073420;28;20197;-65
2022/08/26 01:58:12;;;;;;;9.80;8.27;;;25.90;62.90;;;28.49;46.95;101308.00;5073344;28;20657;-65
2022/08/26 02:00:40;;;;;;;10.70;8.10;;;25.90;63.10;;;28.48;47.47;101308.28;5073354;28;20204;-65
2022/08/26 02:03:16;;;;;;;11.47;8.80;;;25.80;63.40;;;28.46;47.35;101305.03;5073319;28;20221;-64
2022/08/26 02:05:47;;;;;;;11.50;8.10;;;25.80;63.70;;;28.46;47.84;101310.44;5073381;28;20174;-64
2022/08/26 02:08:22;;;;;;;10.80;8.00;;;25.80;63.70;;;28.45;47.61;101314.25;5073884;28;20184;-64
2022/08/26 02:10:52;;;;;;;10.23;8.17;;;25.80;63.70;;;28.48;47.56;101313.72;5073134;28;20169;-64
2022/08/26 02:13:25;;;;;;;12.27;8.83;;;25.80;64.00;;;28.51;47.80;101311.25;5073043;28;20212;-64
2022/08/26 02:15:54;;;;;;;12.27;8.70;;;25.80;64.10;;;28.50;47.89;101308.81;5073186;28;20209;-64
2022/08/26 02:18:24;;;;;;;9.97;8.07;;;25.80;64.00;;;28.49;47.68;101309.91;5072291;28;20272;-64
2022/08/26 02:20:54;;;;;;;9.50;8.17;;;25.80;64.80;;;28.47;47.69;101303.94;5072770;28;20185;-64
2022/08/26 02:23:24;;;;;;;10.07;9.07;;;25.80;63.90;;;28.46;47.74;101310.44;5057486;28;20233;-64
2022/08/26 02:26:01;;;;;;;9.53;8.27;;;25.80;64.10;;;28.42;47.91;101309.41;5052844;28;20663;-64
2022/08/26 02:28:36;;;;;;;10.93;8.30;;;25.80;64.80;;;28.38;47.71;101313.75;5053126;28;20193;-64
2022/08/26 02:31:04;;;;;;;9.67;8.13;;;25.80;64.20;;;28.35;47.76;101307.00;5052587;28;20646;-64
2022/08/26 02:33:34;;;;;;;9.27;8.33;;;25.70;64.00;;;28.32;47.95;101309.44;5052903;28;20213;-64
2022/08/26 02:36:02;;;;;;;9.90;8.73;;;25.70;64.20;;;28.30;48.30;101308.91;5053082;28;20618;-65
2022/08/26 02:38:32;;;;;;;9.50;8.60;;;25.70;64.50;;;28.28;48.37;101308.38;5053293;28;20269;-64
2022/08/26 02:40:59;;;;;;;10.43;9.20;;;25.70;65.50;;;28.28;48.27;101303.78;5052775;28;20284;-64
2022/08/26 02:43:27;;;;;;;9.97;8.77;;;25.60;64.80;;;28.29;48.50;101307.31;5052989;28;20698;-64
2022/08/26 02:46:00;;;;;;;9.90;8.90;;;25.60;64.80;;;28.30;48.21;101303.50;5063680;28;20207;-63
2022/08/26 02:48:29;;;;;;;11.27;9.00;;;25.60;64.80;;;28.29;48.19;101299.97;5073130;28;20646;-64
2022/08/26 02:50:59;;;;;;;9.80;8.90;;;25.60;65.00;;;28.27;47.97;101296.72;5072767;28;20185;-65
2022/08/26 02:53:27;;;;;;;9.63;8.67;;;25.60;64.80;;;28.25;48.08;101298.09;5073000;28;20212;-64
2022/08/26 02:55:59;;;;;;;9.70;8.60;;;25.60;64.70;;;28.19;48.48;101284.56;5073736;28;20201;-66
2022/08/26 02:58:27;;;;;;;10.10;9.10;;;25.50;64.80;;;28.15;48.25;101299.75;5073656;28;20219;-65
2022/08/26 03:00:54;;;;;;;10.43;9.43;;;25.60;65.00;;;28.14;48.36;101292.75;5072777;28;20193;-64
2022/08/26 03:03:22;;;;;;;11.13;9.60;;;25.50;65.00;;;28.12;48.88;101292.19;5072535;28;20231;-65
2022/08/26 03:05:50;;;;;;;12.73;9.93;;;25.50;65.20;;;28.10;48.54;101290.84;5072631;28;20711;-65
2022/08/26 03:08:18;;;;;;;10.43;9.03;;;25.40;65.20;;;28.05;48.61;101288.97;5072864;28;20185;-65
2022/08/26 03:10:46;;;;;;;12.70;9.30;;;25.40;66.00;;;28.03;48.67;101282.22;5072378;28;20189;-65
2022/08/26 03:13:16;;;;;;;11.83;9.50;;;25.40;65.40;;;27.99;48.58;101284.69;5072841;28;20686;-65
2022/08/26 03:15:44;;;;;;;11.50;9.27;;;25.40;65.70;;;27.97;48.60;101284.13;5072642;28;20208;-64
2022/08/26 03:18:14;;;;;;;11.60;10.17;;;25.30;65.70;;;27.94;49.25;101284.66;5072442;28;20185;-64
2022/08/26 03:20:41;;;;;;;10.93;9.83;;;25.30;65.90;;;27.90;48.93;101270.06;5072585;28;20303;-64
2022/08/26 03:23:10;;;;;;;10.80;8.90;;;25.20;65.90;;;27.88;49.18;101274.94;5058822;28;20236;-63
2022/08/26 03:25:38;;;;;;;13.00;9.60;;;25.20;66.00;;;27.85;48.80;101269.25;5052587;28;20193;-65
2022/08/26 03:28:06;;;;;;;11.43;9.30;;;25.20;66.10;;;27.83;49.48;101272.25;5052729;28;20655;-65
2022/08/26 03:30:40;;;;;;;13.37;9.97;;;25.20;66.40;;;27.81;49.11;101277.13;5056594;28;20190;-65
2022/08/26 03:33:13;;;;;;;11.97;9.83;;;25.20;66.60;;;27.80;49.60;101266.56;5056088;28;20213;-66
2022/08/26 03:35:44;;;;;;;11.40;10.03;;;25.20;66.60;;;27.78;49.62;101272.28;5056386;28;20196;-64
2022/08/26 03:38:11;;;;;;;10.53;9.40;;;25.20;67.60;;;27.77;49.74;101278.75;5056260;28;20181;-65
2022/08/26 03:40:41;;;;;;;11.00;9.90;;;25.10;66.80;;;27.76;49.66;101274.44;5055713;28;20209;-65
2022/08/26 03:43:13;;;;;;;10.13;9.20;;;25.10;66.80;;;27.77;49.54;101270.63;5055769;28;20218;-65
2022/08/26 03:45:42;;;;;;;11.27;10.17;;;25.10;67.00;;;27.77;49.65;101265.22;5064190;28;20685;-65
2022/08/26 03:48:12;;;;;;;14.07;10.40;;;25.10;67.00;;;27.78;49.97;101264.16;5075934;28;20184;-64
2022/08/26 03:50:40;;;;;;;12.23;9.80;;;25.10;67.20;;;27.78;49.54;101266.84;5075699;28;20224;-64
2022/08/26 03:53:09;;;;;;;11.23;10.03;;;25.10;67.20;;;27.76;49.83;101266.31;5060648;28;20272;-64
2022/08/26 03:55:40;;;;;;;12.53;11.27;;;25.10;68.00;;;27.75;50.32;101264.69;5055969;28;20173;-65
2022/08/26 03:58:07;;;;;;;11.97;10.27;;;25.10;67.40;;;27.75;50.04;101263.88;5055750;28;20260;-65
2022/08/26 04:00:35;;;;;;;10.30;9.30;;;25.10;67.30;;;27.74;49.59;101260.34;5055441;28;20280;-64
2022/08/26 04:03:04;;;;;;;11.20;9.80;;;25.10;67.40;;;27.74;49.77;101265.75;5056199;28;20214;-65
2022/08/26 04:05:36;;;;;;;11.23;10.03;;;25.10;67.60;;;27.76;50.12;101262.81;5055685;28;20178;-65
2022/08/26 04:08:05;;;;;;;11.47;10.27;;;25.10;68.00;;;27.74;50.13;101268.47;5055354;28;20254;-65
2022/08/26 04:10:32;;;;;;;10.80;9.47;;;25.10;67.50;;;27.72;49.82;101267.16;5055393;28;20197;-65
2022/08/26 04:12:59;;;;;;;10.97;9.60;;;25.00;67.40;;;27.69;50.47;101263.09;5055333;28;20213;-65
2022/08/26 04:15:27;;;;;;;14.40;10.57;;;25.00;67.50;;;27.67;50.00;101267.94;5055306;28;20190;-65
2022/08/26 04:17:54;;;;;;;11.40;10.20;;;25.00;67.60;;;27.65;49.96;101261.22;5054938;28;20218;-65
2022/08/26 04:20:25;;;;;;;12.67;10.27;;;25.00;67.80;;;27.66;50.49;101262.81;5055017;28;20194;-64
2022/08/26 04:22:53;;;;;;;15.67;10.87;;;25.00;68.00;;;27.64;50.20;101260.41;5055240;28;20217;-65
2022/08/26 04:25:21;;;;;;;11.40;10.20;;;25.00;68.00;;;27.63;50.20;101253.34;5054922;28;20194;-65
2022/08/26 04:27:50;;;;;;;11.63;10.33;;;25.00;68.00;;;27.65;50.25;101256.59;5054821;28;20194;-65
2022/08/26 04:30:18;;;;;;;12.60;9.80;;;25.00;68.00;;;27.65;50.05;101255.81;5054767;28;20651;-65
2022/08/26 04:32:47;;;;;;;11.50;10.33;;;24.90;67.90;;;27.64;50.02;101257.69;5054474;28;20659;-65
2022/08/26 04:35:15;;;;;;;13.17;10.17;;;24.90;67.80;;;27.61;50.35;101255.53;5053631;28;20244;-65
2022/08/26 04:37:44;;;;;;;11.80;10.60;;;25.00;67.90;;;27.58;50.54;101256.06;5054462;28;20218;-65
2022/08/26 04:40:12;;;;;;;15.40;11.17;;;24.90;67.80;;;27.56;49.99;101258.25;5053673;28;20205;-65
2022/08/26 04:42:39;;;;;;;12.37;10.70;;;24.90;68.10;;;27.53;50.77;101258.78;5054464;28;20214;-65
2022/08/26 04:45:08;;;;;;;11.63;10.33;;;24.90;68.20;;;27.53;50.47;101264.19;5054367;28;20200;-64
2022/08/26 04:47:37;;;;;;;12.77;11.47;;;24.90;68.30;;;27.52;50.46;101263.41;5054382;28;20198;-65
2022/08/26 04:50:07;;;;;;;11.93;10.73;;;24.90;68.30;;;27.51;50.32;101266.38;5054640;28;20598;-65
2022/08/26 04:52:37;;;;;;;14.27;10.93;;;24.80;68.30;;;27.50;50.42;101270.19;5054300;28;20280;-64
2022/08/26 04:55:07;;;;;;;13.03;10.30;;;24.90;68.30;;;27.46;50.55;101269.91;5054473;28;20186;-65
2022/08/26 04:57:35;;;;;;;11.97;10.27;;;24.80;68.20;;;27.43;50.31;101269.66;5055198;28;20236;-65
2022/08/26 05:00:05;;;;;;;28.40;16.07;;;24.80;68.50;;;27.42;51.12;101273.44;5054116;28;20209;-64
2022/08/26 05:02:33;;;;;;;19.93;13.93;;;24.70;68.70;;;27.43;50.86;101269.66;5054042;28;20650;-64
2022/08/26 05:05:00;;;;;;;21.73;15.53;;;24.70;68.80;;;27.44;51.17;101266.66;5054467;28;20197;-65
2022/08/26 05:07:29;;;;;;;12.00;10.80;;;24.80;69.20;;;27.47;50.88;101268.00;5054574;28;20201;-65
2022/08/26 05:09:58;;;;;;;12.50;11.17;;;24.80;69.10;;;27.47;51.07;101276.94;5054281;28;20190;-65
2022/08/26 05:12:27;;;;;;;12.13;10.50;;;24.70;68.80;;;27.48;51.12;101272.34;5053834;28;20828;-66
2022/08/26 05:14:55;;;;;;;12.60;11.07;;;24.80;69.00;;;27.49;50.71;101263.94;5053880;28;20694;-65
2022/08/26 05:17:23;;;;;;;15.13;11.67;;;24.80;68.90;;;27.50;50.96;101270.97;5085884;28;20210;-65
2022/08/26 05:19:50;;;;;;;15.13;12.00;;;24.80;68.90;;;27.52;50.54;101268.00;5054075;28;20194;-64
2022/08/26 05:22:19;;;;;;;13.80;11.67;;;24.80;69.00;;;27.54;50.82;101273.94;5053800;28;20208;-65
2022/08/26 05:24:46;;;;;;;11.97;10.70;;;24.80;69.00;;;27.56;50.92;101269.06;5054139;28;20181;-67
2022/08/26 05:27:13;;;;;;;11.63;10.40;;;24.80;69.00;;;27.59;50.55;101268.53;5053992;28;20188;-65
2022/08/26 05:29:42;;;;;;;14.83;11.30;;;24.80;69.10;;;27.63;50.78;101272.31;5053924;28;20193;-65
2022/08/26 05:32:10;;;;;;;13.23;11.63;;;24.80;69.20;;;27.66;50.29;101274.47;5055230;28;20570;-65
2022/08/26 05:34:37;;;;;;;13.43;12.00;;;24.90;69.10;;;27.69;50.72;101279.34;5054896;28;20225;-64
2022/08/26 05:37:05;;;;;;;12.57;11.07;;;24.90;69.10;;;27.72;50.39;101284.19;5056652;28;20214;-65
2022/08/26 05:39:32;;;;;;;12.97;11.67;;;24.90;69.00;;;27.77;50.45;101280.66;5057078;28;20186;-65
2022/08/26 05:42:01;;;;;;;15.80;12.97;;;25.00;69.00;;;27.82;50.22;101278.75;5054254;28;20206;-65
2022/08/26 05:44:28;;;;;;;29.80;26.63;;;25.00;68.80;;;27.84;50.33;101281.97;5054330;28;20194;-65
2022/08/26 05:47:17;;;;;;;21.67;17.63;;;25.10;68.70;;;27.84;50.29;101276.56;5033521;28;20225;-64
2022/08/26 05:49:46;;;;;;;18.27;14.00;;;25.10;68.60;;;27.87;50.26;101270.59;5033687;28;20233;-66
2022/08/26 05:52:17;;;;;;;14.47;11.80;;;25.10;68.60;;;27.89;50.03;101281.97;5047887;28;20297;-66
2022/08/26 05:54:45;;;;;;;14.97;12.60;;;25.20;68.70;;;27.92;50.29;101284.13;5033546;28;20241;-65
2022/08/26 05:57:14;;;;;;;14.50;12.33;;;25.10;68.60;;;27.93;50.20;101288.44;5033889;28;20207;-66
2022/08/26 05:59:45;;;;;;;13.10;11.57;;;25.10;68.60;;;27.96;50.31;101285.19;5033425;28;20202;-65
2022/08/26 06:02:12;;;;;;;13.40;11.57;;;25.10;68.70;;;28.00;50.33;101280.06;5033139;28;20234;-65
2022/08/26 06:04:42;;;;;;;15.73;12.73;;;25.20;68.80;;;28.04;50.38;101281.94;5033702;28;20249;-65
2022/08/26 06:07:09;;;;;;;13.37;11.97;;;25.20;68.80;;;28.07;50.08;101291.41;5033343;28;20639;-65
2022/08/26 06:09:40;;;;;;;13.47;11.23;;;25.20;68.60;;;28.09;50.00;101284.66;5032892;28;20719;-65
2022/08/26 06:12:08;;;;;;;16.33;12.57;;;25.20;68.50;;;28.10;50.04;101291.66;5048774;28;20301;-65
2022/08/26 06:14:35;;;;;;;13.37;11.97;;;25.30;68.70;;;28.15;49.86;101285.41;5052964;28;20189;-65
2022/08/26 06:17:03;;;;;;;17.10;12.47;;;25.30;68.60;;;28.22;50.09;101287.84;5052983;28;20214;-65
2022/08/26 06:19:30;;;;;;;17.90;13.13;;;25.30;68.70;;;28.29;50.25;101283.72;5052981;28;20239;-65
2022/08/26 06:25:36;;;;;;;14.97;12.20;;;25.40;69.50;;;28.36;49.73;101289.63;5053112;28;20213;-65
2022/08/26 06:27:36;;;;;;;13.80;11.50;;;25.50;68.40;;;28.46;49.73;101283.34;5053951;28;20331;-66
2022/08/26 06:30:05;;;;;;;14.07;10.90;;;25.60;68.40;;;28.53;49.53;101283.84;5055173;28;20186;-65
2022/08/26 06:32:32;;;;;;;13.20;11.30;;;25.60;68.40;;;28.62;49.45;101284.94;5053777;28;20267;-65
2022/08/26 06:35:00;;;;;;;18.73;12.83;;;25.70;68.20;;;28.69;49.32;101277.31;5054322;28;20239;-65
2022/08/26 06:37:29;;;;;;;15.63;12.40;;;25.80;68.10;;;28.78;49.71;101286.44;5054253;28;20228;-66
2022/08/26 06:39:56;;;;;;;15.67;11.97;;;25.80;68.00;;;28.86;49.31;101285.03;5053418;28;20186;-66
2022/08/26 06:42:24;;;;;;;15.03;13.57;;;25.90;67.70;;;28.93;48.85;101280.91;5053158;28;20292;-65
2022/08/26 06:44:53;;;;;;;13.90;12.40;;;26.00;67.50;;;29.02;48.60;101286.53;5053163;28;20193;-65
2022/08/26 06:47:20;;;;;;;13.50;12.07;;;26.10;67.40;;;29.10;48.50;101284.00;5054725;28;20190;-65
2022/08/26 06:49:49;;;;;;;29.87;25.97;;;26.20;67.20;;;29.16;48.33;101288.31;5053544;28;20292;-66
2022/08/26 06:52:17;;;;;;;37.20;32.07;;;26.30;66.90;;;29.23;48.38;101288.81;5052926;28;20288;-65
2022/08/26 06:54:52;;;;;;;21.67;18.40;;;26.30;66.80;;;29.34;48.11;101294.97;5054678;28;20244;-65
2022/08/26 06:57:19;;;;;;;16.13;11.63;;;26.40;66.50;;;29.41;47.84;101301.66;5054330;28;20229;-66
2022/08/26 06:59:47;;;;;;;18.60;13.80;;;26.50;66.20;;;29.47;47.97;101303.25;5053587;28;20206;-64
2022/08/26 07:02:17;;;;;;;20.10;12.40;;;26.50;65.80;;;29.52;47.69;101308.59;5053485;28;20212;-64
2022/08/26 07:04:44;;;;;;;15.17;11.20;;;26.60;65.70;;;29.62;47.44;101301.50;5055956;28;20714;-64
2022/08/26 07:07:14;;;;;;;16.50;12.13;;;26.70;65.60;;;29.72;47.01;101301.34;5057213;28;20214;-64
2022/08/26 07:09:42;;;;;;;19.60;13.83;;;26.80;65.40;;;29.75;47.31;101300.78;5058648;28;20252;-65
2022/08/26 07:12:11;;;;;;;15.63;12.30;;;26.90;65.10;;;29.83;46.89;101301.00;5074194;28;20289;-64
2022/08/26 07:14:39;;;;;;;16.23;12.03;;;26.90;65.00;;;29.93;47.00;101303.59;5058515;28;20189;-65
2022/08/26 07:17:13;;;;;;;15.37;11.67;;;27.00;64.90;;;30.02;47.19;101303.78;5059535;28;20209;-66
2022/08/26 07:19:41;;;;;;;14.63;12.10;;;27.10;64.60;;;30.11;46.94;101304.75;5060677;28;20194;-65
2022/08/26 07:22:09;;;;;;;12.60;11.40;;;27.20;64.40;;;30.17;46.44;101308.22;5059284;28;20228;-64
2022/08/26 07:24:40;;;;;;;12.53;10.77;;;27.20;64.90;;;30.24;46.83;101298.59;5057008;28;20194;-64
2022/08/26 07:27:32;;;;;;;12.00;10.77;;;27.30;64.00;;;30.54;45.73;101298.22;5055888;28;20608;-63
2022/08/26 07:29:59;;;;;;;17.93;11.10;;;27.40;64.10;;;31.04;44.88;101302.13;5055929;28;20190;-65
2022/08/26 07:32:31;;;;;;;17.60;12.10;;;27.70;64.10;;;31.50;44.73;101293.97;5055925;28;20256;-66
2022/08/26 07:34:59;;;;;;;14.90;10.73;;;27.90;63.20;;;32.05;43.50;101300.28;5056462;28;20190;-65
2022/08/26 07:37:27;;;;;;;12.23;10.77;;;28.30;62.60;;;32.68;42.90;101300.28;5055674;28;20210;-65
2022/08/26 07:40:03;;;;;;;12.90;10.83;;;28.70;61.70;;;33.40;40.61;101299.03;5070746;28;20185;-65
2022/08/26 07:42:33;;;;;;;14.23;11.23;;;29.20;59.90;;;34.03;39.15;101301.44;5055358;28;20221;-64
2022/08/26 07:45:01;;;;;;;14.70;10.80;;;29.70;58.20;;;34.60;38.31;101306.88;5055887;28;20190;-65
2022/08/26 07:47:28;;;;;;;15.77;10.67;;;30.20;57.30;;;35.15;37.48;101304.28;5056046;28;20193;-65
2022/08/26 07:49:57;;;;;;;13.77;10.20;;;30.60;56.20;;;35.72;36.21;101308.31;5057059;28;20201;-65
2022/08/26 07:52:28;;;;;;;12.37;10.80;;;31.00;55.10;;;36.24;35.60;101308.06;5055108;28;20268;-65
2022/08/26 07:54:59;;;;;;;13.63;11.43;;;31.50;53.70;;;36.86;34.49;101317.13;5056220;28;20657;-65
2022/08/26 07:57:28;;;;;;;14.43;11.25;;;32.00;52.60;;;37.51;33.15;101319.09;5056256;28;20235;-67
2022/08/26 07:59:58;;;;;;;15.18;10.73;;;32.50;51.30;;;38.08;32.50;101320.97;5056216;28;20201;-65
2022/08/26 08:02:28;;;;;;;10.98;8.30;;;32.90;50.10;;;38.66;32.04;101330.59;5055727;28;20227;-65
2022/08/26 08:04:57;;;;;;;14.88;13.30;;;33.40;50.00;;;39.21;31.06;101328.69;5055383;28;20293;-65
2022/08/26 08:07:25;;;;;;;13.00;10.32;;;33.80;48.80;;;39.42;28.99;101331.19;5071154;28;20186;-65
2022/08/26 08:10:16;;;;;;;12.48;8.80;;;34.10;45.00;;;39.35;29.67;101331.03;5055632;28;20262;-65
2022/08/26 08:12:43;;;;;;;13.38;10.40;;;34.50;45.50;;;39.60;29.32;101327.00;5055653;28;20218;-65
2022/08/26 08:15:14;;;;;;;12.35;9.10;;;34.70;45.00;;;39.90;29.37;101330.88;5054517;28;20193;-65
2022/08/26 08:17:45;;;;;;;12.32;8.02;;;34.90;44.80;;;40.24;29.21;101329.31;5056291;28;20208;-65
2022/08/26 08:20:17;;;;;;;11.95;8.93;;;35.20;44.70;;;40.84;28.61;101327.06;5054784;28;20185;-65
2022/08/26 08:22:45;;;;;;;12.00;9.57;;;35.50;44.00;;;41.50;27.73;101329.53;5054863;28;20213;-66
2022/08/26 08:25:13;;;;;;;16.60;13.50;;;35.80;42.60;;;41.99;26.66;101329.53;5054965;28;20248;-65
2022/08/26 08:27:47;;;;;;;13.38;9.75;;;36.10;42.00;;;42.15;25.77;101333.00;5055499;28;20186;-65
2022/08/26 08:30:20;;;;;;;11.98;10.20;;;36.40;41.10;;;42.24;25.49;101325.19;5056781;28;20189;-65
2022/08/26 08:32:49;;;;;;;10.48;8.80;;;36.70;40.10;;;42.31;25.76;101325.28;5055924;28;20218;-66
2022/08/26 08:35:21;;;;;;;14.18;9.77;;;36.90;40.10;;;42.32;25.37;101322.13;5055072;28;20189;-65
2022/08/26 08:37:53;;;;;;;10.35;8.35;;;37.00;38.60;;;41.89;25.11;101330.19;5054544;28;20208;-66
2022/08/26 08:40:24;;;;;;;11.75;7.00;;;37.00;37.40;;;41.46;25.97;101325.91;5054240;28;20248;-64
2022/08/26 08:43:00;;;;;;;8.52;6.95;;;37.00;38.10;;;41.16;26.63;101320.19;5055533;28;20288;-64
2022/08/26 08:45:35;;;;;;;15.93;6.88;;;36.80;38.50;;;40.78;26.22;101323.78;5062650;28;20195;-65
2022/08/26 08:48:12;;;;;;;12.60;7.47;;;36.70;37.90;;;40.54;26.59;101324.06;5075153;28;20573;-65
2022/08/26 08:50:44;;;;;;;14.10;8.52;;;36.50;38.30;;;40.23;26.83;101332.44;5074904;28;20247;-65
2022/08/26 08:53:17;;;;;;;9.13;7.30;;;36.30;38.40;;;39.94;27.75;101330.16;5059381;28;20220;-64
2022/08/26 08:56:01;;;;;;;12.10;10.35;;;36.10;39.00;;;40.15;27.29;101336.22;5055934;28;20198;-65
2022/08/26 08:58:50;;;;;;;10.85;7.97;;;36.00;39.60;;;40.39;27.03;101322.16;5054823;28;20217;-65
2022/08/26 09:01:32;;;;;;;11.55;10.55;;;36.10;39.10;;;40.54;27.08;101324.06;5054549;28;20201;-65
2022/08/26 09:04:22;;;;;;;12.32;8.00;;;36.10;39.30;;;40.78;26.43;101320.22;5054776;28;20217;-65
2022/08/26 09:06:56;;;;;;;10.40;8.10;;;36.20;39.20;;;41.11;25.80;101315.78;5053469;28;20659;-65
2022/08/26 09:09:36;;;;;;;12.88;7.75;;;36.30;38.80;;;41.23;25.65;101314.78;5054951;28;20190;-65
2022/08/26 09:12:11;;;;;;;10.05;9.05;;;36.40;37.20;;;41.19;25.70;101314.75;5056098;28;20283;-65
2022/08/26 09:14:43;;;;;;;12.27;9.07;;;36.60;37.70;;;41.33;25.51;101318.94;5055845;28;20625;-66
2022/08/26 09:17:30;;;;;;;7.97;7.15;;;36.70;37.80;;;41.25;25.75;101317.22;5054430;28;20194;-66
2022/08/26 09:20:10;;;;;;;8.48;7.57;;;36.80;37.50;;;41.36;25.58;101318.22;5070401;28;20182;-65
2022/08/26 09:22:39;;;;;;;8.63;7.68;;;36.90;37.60;;;41.59;25.36;101316.22;5053853;28;20209;-66
2022/08/26 09:25:13;;;;;;;10.32;7.00;;;37.00;37.70;;;41.74;25.14;101313.38;5054750;28;20646;-66
2022/08/26 09:27:45;;;;;;;8.63;7.72;;;37.00;37.20;;;41.86;24.97;101315.13;5054394;28;20185;-65
2022/08/26 09:30:25;;;;;;;10.88;7.75;;;37.20;36.90;;;42.07;24.51;101315.44;5053928;28;20211;-66
2022/08/26 09:33:05;;;;;;;8.63;7.72;;;37.20;36.40;;;41.81;25.19;101312.69;5053933;28;20288;-65
2022/08/26 09:35:41;;;;;;;8.63;7.45;;;37.20;36.70;;;41.76;24.93;101316.56;5053789;28;20186;-63
2022/08/26 09:38:24;;;;;;;12.85;8.25;;;37.20;36.80;;;41.53;25.21;101306.66;5053441;28;20205;-65
2022/08/26 09:40:57;;;;;;;12.10;7.85;;;37.10;36.00;;;41.24;25.49;101304.53;5052733;28;20220;-65
2022/08/26 09:43:27;;;;;;;10.95;7.22;;;37.00;36.40;;;41.18;25.90;101299.31;5053985;28;20284;-65
2022/08/26 09:46:17;;;;;;;9.35;7.85;;;36.90;36.80;;;41.22;25.61;101290.28;5064432;28;20197;-65
2022/08/26 09:48:46;;;;;;;12.40;8.50;;;36.80;36.90;;;41.27;25.51;101298.28;5074032;28;20181;-66
2022/08/26 09:51:30;;;;;;;14.68;7.80;;;36.80;36.70;;;41.07;25.60;101292.81;5072864;28;20185;-64
2022/08/26 09:54:01;;;;;;;8.05;7.05;;;36.80;36.40;;;40.96;25.10;101294.53;5033306;28;20205;-65
2022/08/26 09:56:31;;;;;;;8.15;6.80;;;36.80;36.40;;;40.97;25.26;101293.41;5043423;28;20205;-65
2022/08/26 09:59:01;;;;;;;8.93;7.20;;;36.70;36.70;;;41.14;25.58;101287.41;5052695;28;20678;-64
2022/08/26 10:01:34;;;;;;;11.68;7.20;;;36.70;36.80;;;41.11;24.73;101296.41;5053529;28;20190;-65
2022/08/26 10:04:11;;;;;;;11.52;7.63;;;36.70;35.90;;;40.98;25.01;101289.47;5054918;28;20577;-66
2022/08/26 10:06:54;;;;;;;15.00;11.02;;;36.80;36.30;;;40.74;25.73;101302.78;5054097;28;20182;-67
2022/08/26 10:09:24;;;;;;;11.15;7.88;;;36.70;36.20;;;40.42;25.68;101291.03;5053602;28;20265;-66
2022/08/26 10:11:57;;;;;;;11.93;7.60;;;36.60;36.20;;;40.07;26.11;101285.56;5052775;28;20576;-65
2022/08/26 10:14:32;;;;;;;11.15;6.88;;;36.50;36.60;;;39.94;26.81;101292.31;5054179;28;20175;-66
2022/08/26 10:17:08;;;;;;;11.32;7.15;;;36.40;37.30;;;39.98;26.54;101297.94;5053811;28;20227;-64
2022/08/26 10:19:46;;;;;;;9.35;7.43;;;36.20;37.60;;;40.04;27.24;101291.78;5053473;28;20291;-66
2022/08/26 10:22:34;;;;;;;13.40;7.68;;;36.20;38.00;;;40.25;27.01;101283.97;5054256;28;20256;-66
2022/08/26 10:25:10;;;;;;;9.77;7.30;;;36.20;38.30;;;40.62;26.13;101281.63;5053775;28;20173;-66